NCAR-RAP Real-Time Weather Data

Output produced by METARs form (23 February 2020  01:48 UTC)
found at http://weather.rap.ucar.edu/surface/
 
KBFF 230053Z AUTO 30007KT 10SM CLR 08/M10 A2995 RMK AO2 SLP155 T00831100